sensor_id;sensor_type;location;lat;lon;timestamp;P1;durP1;ratioP1;P2;durP2;ratioP2
37049;SDS011;22958;51.232;6.826;2023-03-01T00:00:12;14.65;;;7.70;;
37049;SDS011;22958;51.232;6.826;2023-03-01T00:02:38;16.80;;;8.37;;
37049;SDS011;22958;51.232;6.826;2023-03-01T00:05:03;20.77;;;7.37;;
37049;SDS011;22958;51.232;6.826;2023-03-01T00:07:29;17.45;;;7.82;;
37049;SDS011;22958;51.232;6.826;2023-03-01T00:09:55;18.03;;;8.10;;
37049;SDS011;22958;51.232;6.826;2023-03-01T00:12:20;13.20;;;7.30;;
37049;SDS011;22958;51.232;6.826;2023-03-01T00:14:46;17.47;;;7.37;;
37049;SDS011;22958;51.232;6.826;2023-03-01T00:17:11;16.90;;;8.43;;
37049;SDS011;22958;51.232;6.826;2023-03-01T00:19:37;15.63;;;8.20;;
37049;SDS011;22958;51.232;6.826;2023-03-01T00:22:02;15.50;;;7.70;;
37049;SDS011;22958;51.232;6.826;2023-03-01T00:24:28;13.70;;;7.07;;
37049;SDS011;22958;51.232;6.826;2023-03-01T00:26:54;19.37;;;8.57;;
37049;SDS011;22958;51.232;6.826;2023-03-01T00:29:24;16.10;;;9.10;;
37049;SDS011;22958;51.232;6.826;2023-03-01T00:31:49;20.00;;;8.07;;
37049;SDS011;22958;51.232;6.826;2023-03-01T00:34:15;21.57;;;8.23;;
37049;SDS011;22958;51.232;6.826;2023-03-01T00:36:41;16.87;;;8.30;;
37049;SDS011;22958;51.232;6.826;2023-03-01T00:39:09;18.90;;;8.17;;
37049;SDS011;22958;51.232;6.826;2023-03-01T00:41:36;20.52;;;8.30;;
37049;SDS011;22958;51.232;6.826;2023-03-01T00:44:02;22.23;;;8.60;;
37049;SDS011;22958;51.232;6.826;2023-03-01T00:46:28;18.03;;;8.33;;
37049;SDS011;22958;51.232;6.826;2023-03-01T00:48:55;16.70;;;8.68;;
37049;SDS011;22958;51.232;6.826;2023-03-01T00:51:22;20.15;;;8.35;;
37049;SDS011;22958;51.232;6.826;2023-03-01T00:53:50;17.08;;;8.45;;
37049;SDS011;22958;51.232;6.826;2023-03-01T00:56:17;19.85;;;8.90;;
37049;SDS011;22958;51.232;6.826;2023-03-01T00:58:42;17.90;;;8.40;;
37049;SDS011;22958;51.232;6.826;2023-03-01T01:01:19;14.87;;;7.60;;
37049;SDS011;22958;51.232;6.826;2023-03-01T01:03:47;18.10;;;8.57;;
37049;SDS011;22958;51.232;6.826;2023-03-01T01:06:17;20.08;;;8.00;;
37049;SDS011;22958;51.232;6.826;2023-03-01T01:08:44;19.38;;;8.65;;
37049;SDS011;22958;51.232;6.826;2023-03-01T01:11:10;17.57;;;8.57;;
37049;SDS011;22958;51.232;6.826;2023-03-01T01:13:37;21.80;;;8.32;;
37049;SDS011;22958;51.232;6.826;2023-03-01T01:18:29;20.98;;;8.57;;
37049;SDS011;22958;51.232;6.826;2023-03-01T01:20:54;16.73;;;8.63;;
37049;SDS011;22958;51.232;6.826;2023-03-01T01:23:20;28.23;;;10.13;;
37049;SDS011;22958;51.232;6.826;2023-03-01T01:25:46;19.07;;;8.90;;
37049;SDS011;22958;51.232;6.826;2023-03-01T01:28:11;23.87;;;9.67;;
37049;SDS011;22958;51.232;6.826;2023-03-01T01:30:37;22.03;;;9.93;;
37049;SDS011;22958;51.232;6.826;2023-03-01T01:33:02;17.90;;;8.77;;
37049;SDS011;22958;51.232;6.826;2023-03-01T01:35:28;26.80;;;9.47;;
37049;SDS011;22958;51.232;6.826;2023-03-01T01:37:53;16.17;;;9.70;;
37049;SDS011;22958;51.232;6.826;2023-03-01T01:40:19;23.43;;;10.53;;
37049;SDS011;22958;51.232;6.826;2023-03-01T01:42:44;18.33;;;9.00;;
37049;SDS011;22958;51.232;6.826;2023-03-01T01:48:00;21.08;;;9.95;;
37049;SDS011;22958;51.232;6.826;2023-03-01T01:50:31;21.40;;;9.50;;
37049;SDS011;22958;51.232;6.826;2023-03-01T01:53:04;22.50;;;9.68;;
37049;SDS011;22958;51.232;6.826;2023-03-01T01:55:34;23.25;;;10.43;;
37049;SDS011;22958;51.232;6.826;2023-03-01T01:58:02;18.85;;;8.85;;
37049;SDS011;22958;51.232;6.826;2023-03-01T02:00:32;21.85;;;9.75;;
37049;SDS011;22958;51.232;6.826;2023-03-01T02:03:05;22.90;;;10.27;;
37049;SDS011;22958;51.232;6.826;2023-03-01T02:05:36;21.13;;;9.17;;
37049;SDS011;22958;51.232;6.826;2023-03-01T02:08:25;22.80;;;9.60;;
37049;SDS011;22958;51.232;6.826;2023-03-01T02:10:53;21.42;;;9.63;;
37049;SDS011;22958;51.232;6.826;2023-03-01T02:13:20;24.00;;;10.25;;
37049;SDS011;22958;51.232;6.826;2023-03-01T02:15:46;23.90;;;10.03;;
37049;SDS011;22958;51.232;6.826;2023-03-01T02:18:12;22.47;;;10.07;;
37049;SDS011;22958;51.232;6.826;2023-03-01T02:23:23;26.33;;;10.93;;
37049;SDS011;22958;51.232;6.826;2023-03-01T02:28:30;22.35;;;10.73;;
37049;SDS011;22958;51.232;6.826;2023-03-01T02:31:06;26.95;;;9.95;;
37049;SDS011;22958;51.232;6.826;2023-03-01T02:33:51;21.20;;;10.18;;
37049;SDS011;22958;51.232;6.826;2023-03-01T02:38:45;20.67;;;10.10;;
37049;SDS011;22958;51.232;6.826;2023-03-01T02:41:13;27.58;;;10.88;;
37049;SDS011;22958;51.232;6.826;2023-03-01T02:43:41;24.27;;;11.23;;
37049;SDS011;22958;51.232;6.826;2023-03-01T02:46:12;28.43;;;11.13;;
37049;SDS011;22958;51.232;6.826;2023-03-01T02:48:45;26.77;;;11.13;;
37049;SDS011;22958;51.232;6.826;2023-03-01T02:51:22;25.00;;;10.90;;
37049;SDS011;22958;51.232;6.826;2023-03-01T02:56:43;29.50;;;11.30;;
37049;SDS011;22958;51.232;6.826;2023-03-01T02:59:13;24.88;;;10.80;;
37049;SDS011;22958;51.232;6.826;2023-03-01T03:01:38;22.67;;;10.47;;
37049;SDS011;22958;51.232;6.826;2023-03-01T03:04:08;22.53;;;11.50;;
37049;SDS011;22958;51.232;6.826;2023-03-01T03:06:36;25.45;;;11.57;;
37049;SDS011;22958;51.232;6.826;2023-03-01T03:09:03;26.40;;;11.68;;
37049;SDS011;22958;51.232;6.826;2023-03-01T03:13:55;21.52;;;11.32;;
37049;SDS011;22958;51.232;6.826;2023-03-01T03:16:21;30.27;;;12.00;;
37049;SDS011;22958;51.232;6.826;2023-03-01T03:18:46;27.93;;;11.27;;
37049;SDS011;22958;51.232;6.826;2023-03-01T03:21:13;26.25;;;12.65;;
37049;SDS011;22958;51.232;6.826;2023-03-01T03:23:39;32.20;;;12.73;;
37049;SDS011;22958;51.232;6.826;2023-03-01T03:26:05;29.23;;;13.03;;
37049;SDS011;22958;51.232;6.826;2023-03-01T03:28:31;24.70;;;11.03;;
37049;SDS011;22958;51.232;6.826;2023-03-01T03:30:58;25.73;;;10.82;;
37049;SDS011;22958;51.232;6.826;2023-03-01T03:33:28;26.52;;;12.07;;
37049;SDS011;22958;51.232;6.826;2023-03-01T03:35:56;26.15;;;11.63;;
37049;SDS011;22958;51.232;6.826;2023-03-01T03:38:22;29.37;;;11.83;;
37049;SDS011;22958;51.232;6.826;2023-03-01T03:41:08;23.97;;;11.93;;
37049;SDS011;22958;51.232;6.826;2023-03-01T03:43:34;21.73;;;11.38;;
37049;SDS011;22958;51.232;6.826;2023-03-01T03:46:02;26.08;;;11.75;;
37049;SDS011;22958;51.232;6.826;2023-03-01T03:48:32;24.27;;;11.23;;
37049;SDS011;22958;51.232;6.826;2023-03-01T03:50:58;22.85;;;10.93;;
37049;SDS011;22958;51.232;6.826;2023-03-01T03:53:25;27.80;;;12.30;;
37049;SDS011;22958;51.232;6.826;2023-03-01T03:55:52;24.60;;;11.57;;
37049;SDS011;22958;51.232;6.826;2023-03-01T03:58:18;31.00;;;10.53;;
37049;SDS011;22958;51.232;6.826;2023-03-01T04:00:45;23.73;;;11.65;;
37049;SDS011;22958;51.232;6.826;2023-03-01T04:03:12;26.35;;;12.02;;
37049;SDS011;22958;51.232;6.826;2023-03-01T04:05:40;24.88;;;11.98;;
37049;SDS011;22958;51.232;6.826;2023-03-01T04:08:06;24.73;;;11.82;;
37049;SDS011;22958;51.232;6.826;2023-03-01T04:10:34;33.20;;;12.25;;
37049;SDS011;22958;51.232;6.826;2023-03-01T04:13:02;24.25;;;12.55;;
37049;SDS011;22958;51.232;6.826;2023-03-01T04:15:28;28.42;;;11.27;;
37049;SDS011;22958;51.232;6.826;2023-03-01T04:17:55;26.50;;;12.82;;
37049;SDS011;22958;51.232;6.826;2023-03-01T04:20:22;26.80;;;12.80;;
37049;SDS011;22958;51.232;6.826;2023-03-01T04:22:49;25.50;;;12.68;;
37049;SDS011;22958;51.232;6.826;2023-03-01T04:25:16;25.73;;;11.73;;
37049;SDS011;22958;51.232;6.826;2023-03-01T04:27:42;24.93;;;13.10;;
37049;SDS011;22958;51.232;6.826;2023-03-01T04:30:07;25.97;;;12.20;;
37049;SDS011;22958;51.232;6.826;2023-03-01T04:32:33;28.75;;;12.75;;
37049;SDS011;22958;51.232;6.826;2023-03-01T04:34:59;30.73;;;12.23;;
37049;SDS011;22958;51.232;6.826;2023-03-01T04:37:25;23.90;;;12.05;;
37049;SDS011;22958;51.232;6.826;2023-03-01T04:39:51;29.50;;;13.17;;
37049;SDS011;22958;51.232;6.826;2023-03-01T04:42:16;23.10;;;11.73;;
37049;SDS011;22958;51.232;6.826;2023-03-01T04:44:43;24.47;;;12.00;;
37049;SDS011;22958;51.232;6.826;2023-03-01T04:47:09;23.80;;;11.88;;
37049;SDS011;22958;51.232;6.826;2023-03-01T04:49:34;33.27;;;13.27;;
37049;SDS011;22958;51.232;6.826;2023-03-01T04:52:00;32.47;;;13.77;;
37049;SDS011;22958;51.232;6.826;2023-03-01T04:54:29;24.73;;;11.68;;
37049;SDS011;22958;51.232;6.826;2023-03-01T04:56:55;27.08;;;12.70;;
37049;SDS011;22958;51.232;6.826;2023-03-01T04:59:21;27.03;;;13.27;;
37049;SDS011;22958;51.232;6.826;2023-03-01T05:01:50;32.45;;;13.00;;
37049;SDS011;22958;51.232;6.826;2023-03-01T05:04:16;27.80;;;13.90;;
37049;SDS011;22958;51.232;6.826;2023-03-01T05:06:42;26.73;;;12.70;;
37049;SDS011;22958;51.232;6.826;2023-03-01T05:09:07;28.27;;;14.13;;
37049;SDS011;22958;51.232;6.826;2023-03-01T05:11:33;32.53;;;13.63;;
37049;SDS011;22958;51.232;6.826;2023-03-01T05:14:01;29.95;;;12.82;;
37049;SDS011;22958;51.232;6.826;2023-03-01T05:18:52;32.30;;;13.38;;
37049;SDS011;22958;51.232;6.826;2023-03-01T05:21:20;22.88;;;11.57;;
37049;SDS011;22958;51.232;6.826;2023-03-01T05:23:46;28.70;;;12.90;;
37049;SDS011;22958;51.232;6.826;2023-03-01T05:26:12;31.53;;;13.93;;
37049;SDS011;22958;51.232;6.826;2023-03-01T05:28:38;30.27;;;12.88;;
37049;SDS011;22958;51.232;6.826;2023-03-01T05:31:04;27.33;;;13.30;;
37049;SDS011;22958;51.232;6.826;2023-03-01T05:33:34;27.88;;;12.45;;
37049;SDS011;22958;51.232;6.826;2023-03-01T05:36:04;25.02;;;13.75;;
37049;SDS011;22958;51.232;6.826;2023-03-01T05:38:31;32.17;;;13.60;;
37049;SDS011;22958;51.232;6.826;2023-03-01T05:40:56;26.03;;;13.23;;
37049;SDS011;22958;51.232;6.826;2023-03-01T05:43:22;27.70;;;12.60;;
37049;SDS011;22958;51.232;6.826;2023-03-01T05:45:47;27.90;;;13.63;;
37049;SDS011;22958;51.232;6.826;2023-03-01T05:48:13;29.07;;;12.70;;
37049;SDS011;22958;51.232;6.826;2023-03-01T05:50:40;27.03;;;13.03;;
37049;SDS011;22958;51.232;6.826;2023-03-01T05:53:15;25.63;;;12.45;;
37049;SDS011;22958;51.232;6.826;2023-03-01T05:55:42;27.80;;;12.50;;
37049;SDS011;22958;51.232;6.826;2023-03-01T05:58:10;28.40;;;13.18;;
37049;SDS011;22958;51.232;6.826;2023-03-01T06:00:38;29.75;;;12.75;;
37049;SDS011;22958;51.232;6.826;2023-03-01T06:03:04;32.00;;;13.80;;
37049;SDS011;22958;51.232;6.826;2023-03-01T06:05:30;27.17;;;12.90;;
37049;SDS011;22958;51.232;6.826;2023-03-01T06:07:58;30.17;;;13.33;;
37049;SDS011;22958;51.232;6.826;2023-03-01T06:10:25;28.27;;;12.95;;
37049;SDS011;22958;51.232;6.826;2023-03-01T06:12:50;27.93;;;12.90;;
37049;SDS011;22958;51.232;6.826;2023-03-01T06:15:16;25.97;;;12.57;;
37049;SDS011;22958;51.232;6.826;2023-03-01T06:17:42;34.50;;;13.07;;
37049;SDS011;22958;51.232;6.826;2023-03-01T06:20:13;26.70;;;12.70;;
37049;SDS011;22958;51.232;6.826;2023-03-01T06:22:41;27.67;;;12.85;;
37049;SDS011;22958;51.232;6.826;2023-03-01T06:25:08;29.23;;;13.35;;
37049;SDS011;22958;51.232;6.826;2023-03-01T06:27:35;27.52;;;14.00;;
37049;SDS011;22958;51.232;6.826;2023-03-01T06:30:01;26.50;;;12.80;;
37049;SDS011;22958;51.232;6.826;2023-03-01T06:32:27;26.83;;;13.63;;
37049;SDS011;22958;51.232;6.826;2023-03-01T06:34:53;25.13;;;12.93;;
37049;SDS011;22958;51.232;6.826;2023-03-01T06:37:18;37.00;;;15.93;;
37049;SDS011;22958;51.232;6.826;2023-03-01T06:39:44;26.20;;;13.60;;
37049;SDS011;22958;51.232;6.826;2023-03-01T06:42:09;26.67;;;13.33;;
37049;SDS011;22958;51.232;6.826;2023-03-01T06:44:36;29.15;;;13.90;;
37049;SDS011;22958;51.232;6.826;2023-03-01T06:47:02;34.83;;;13.35;;
37049;SDS011;22958;51.232;6.826;2023-03-01T06:49:28;27.08;;;12.80;;
37049;SDS011;22958;51.232;6.826;2023-03-01T06:51:54;29.93;;;13.77;;
37049;SDS011;22958;51.232;6.826;2023-03-01T06:54:19;32.63;;;14.30;;
37049;SDS011;22958;51.232;6.826;2023-03-01T06:56:47;28.60;;;13.73;;
37049;SDS011;22958;51.232;6.826;2023-03-01T06:59:14;30.40;;;13.70;;
37049;SDS011;22958;51.232;6.826;2023-03-01T07:01:40;27.90;;;13.40;;
37049;SDS011;22958;51.232;6.826;2023-03-01T07:04:06;28.70;;;13.60;;
37049;SDS011;22958;51.232;6.826;2023-03-01T07:06:31;28.50;;;13.17;;
37049;SDS011;22958;51.232;6.826;2023-03-01T07:08:57;31.50;;;14.40;;
37049;SDS011;22958;51.232;6.826;2023-03-01T07:11:23;28.63;;;13.83;;
37049;SDS011;22958;51.232;6.826;2023-03-01T07:13:48;27.20;;;14.10;;
37049;SDS011;22958;51.232;6.826;2023-03-01T07:16:14;37.57;;;13.03;;
37049;SDS011;22958;51.232;6.826;2023-03-01T07:18:40;31.40;;;13.60;;
37049;SDS011;22958;51.232;6.826;2023-03-01T07:21:06;32.20;;;13.50;;
37049;SDS011;22958;51.232;6.826;2023-03-01T07:23:33;30.27;;;14.80;;
37049;SDS011;22958;51.232;6.826;2023-03-01T07:25:59;33.25;;;13.13;;
37049;SDS011;22958;51.232;6.826;2023-03-01T07:28:25;29.48;;;13.85;;
37049;SDS011;22958;51.232;6.826;2023-03-01T07:30:51;32.20;;;13.73;;
37049;SDS011;22958;51.232;6.826;2023-03-01T07:33:17;27.07;;;13.73;;
37049;SDS011;22958;51.232;6.826;2023-03-01T07:35:42;29.67;;;13.60;;
37049;SDS011;22958;51.232;6.826;2023-03-01T07:38:08;28.47;;;13.73;;
37049;SDS011;22958;51.232;6.826;2023-03-01T07:40:33;25.67;;;12.87;;
37049;SDS011;22958;51.232;6.826;2023-03-01T07:43:00;33.30;;;13.70;;
37049;SDS011;22958;51.232;6.826;2023-03-01T07:45:26;27.63;;;13.53;;
37049;SDS011;22958;51.232;6.826;2023-03-01T07:47:52;32.70;;;14.73;;
37049;SDS011;22958;51.232;6.826;2023-03-01T07:50:19;28.77;;;12.88;;
37049;SDS011;22958;51.232;6.826;2023-03-01T07:52:45;29.83;;;12.87;;
37049;SDS011;22958;51.232;6.826;2023-03-01T07:55:11;27.83;;;13.60;;
37049;SDS011;22958;51.232;6.826;2023-03-01T07:57:37;28.90;;;14.43;;
37049;SDS011;22958;51.232;6.826;2023-03-01T08:00:03;29.15;;;13.88;;
37049;SDS011;22958;51.232;6.826;2023-03-01T08:02:30;27.15;;;12.98;;
37049;SDS011;22958;51.232;6.826;2023-03-01T08:04:56;34.53;;;13.73;;
37049;SDS011;22958;51.232;6.826;2023-03-01T08:07:21;26.10;;;13.63;;
37049;SDS011;22958;51.232;6.826;2023-03-01T08:09:47;26.87;;;12.60;;
37049;SDS011;22958;51.232;6.826;2023-03-01T08:12:12;31.93;;;13.07;;
37049;SDS011;22958;51.232;6.826;2023-03-01T08:14:38;29.13;;;12.37;;
37049;SDS011;22958;51.232;6.826;2023-03-01T08:17:03;28.30;;;13.17;;
37049;SDS011;22958;51.232;6.826;2023-03-01T08:19:29;26.73;;;13.83;;
37049;SDS011;22958;51.232;6.826;2023-03-01T08:21:54;31.17;;;13.87;;
37049;SDS011;22958;51.232;6.826;2023-03-01T08:24:23;32.40;;;13.40;;
37049;SDS011;22958;51.232;6.826;2023-03-01T08:26:49;27.08;;;13.05;;
37049;SDS011;22958;51.232;6.826;2023-03-01T08:29:14;30.23;;;13.37;;
37049;SDS011;22958;51.232;6.826;2023-03-01T08:31:40;21.87;;;11.97;;
37049;SDS011;22958;51.232;6.826;2023-03-01T08:34:07;30.03;;;13.00;;
37049;SDS011;22958;51.232;6.826;2023-03-01T08:36:39;29.63;;;13.60;;
37049;SDS011;22958;51.232;6.826;2023-03-01T08:39:07;26.38;;;13.18;;
37049;SDS011;22958;51.232;6.826;2023-03-01T08:41:33;27.10;;;12.43;;
37049;SDS011;22958;51.232;6.826;2023-03-01T08:43:59;29.93;;;13.27;;
37049;SDS011;22958;51.232;6.826;2023-03-01T08:46:28;31.30;;;13.70;;
37049;SDS011;22958;51.232;6.826;2023-03-01T08:48:56;25.05;;;13.20;;
37049;SDS011;22958;51.232;6.826;2023-03-01T08:51:22;32.33;;;14.48;;
37049;SDS011;22958;51.232;6.826;2023-03-01T08:53:48;28.15;;;13.95;;
37049;SDS011;22958;51.232;6.826;2023-03-01T08:56:14;33.07;;;13.23;;
37049;SDS011;22958;51.232;6.826;2023-03-01T08:58:43;26.10;;;12.63;;
37049;SDS011;22958;51.232;6.826;2023-03-01T09:01:09;31.55;;;12.38;;
37049;SDS011;22958;51.232;6.826;2023-03-01T09:03:37;24.33;;;12.18;;
37049;SDS011;22958;51.232;6.826;2023-03-01T09:06:03;22.97;;;12.00;;
37049;SDS011;22958;51.232;6.826;2023-03-01T09:08:30;26.38;;;12.43;;
37049;SDS011;22958;51.232;6.826;2023-03-01T09:11:00;26.90;;;11.88;;
37049;SDS011;22958;51.232;6.826;2023-03-01T09:13:27;26.05;;;12.40;;
37049;SDS011;22958;51.232;6.826;2023-03-01T09:15:55;25.95;;;12.75;;
37049;SDS011;22958;51.232;6.826;2023-03-01T09:18:22;27.98;;;12.10;;
37049;SDS011;22958;51.232;6.826;2023-03-01T09:20:47;22.57;;;12.43;;
37049;SDS011;22958;51.232;6.826;2023-03-01T09:23:13;24.07;;;11.97;;
37049;SDS011;22958;51.232;6.826;2023-03-01T09:25:38;22.63;;;11.70;;
37049;SDS011;22958;51.232;6.826;2023-03-01T09:28:04;21.30;;;11.77;;
37049;SDS011;22958;51.232;6.826;2023-03-01T09:30:29;27.77;;;12.77;;
37049;SDS011;22958;51.232;6.826;2023-03-01T09:32:58;23.53;;;11.93;;
37049;SDS011;22958;51.232;6.826;2023-03-01T09:35:23;27.73;;;12.48;;
37049;SDS011;22958;51.232;6.826;2023-03-01T09:37:50;31.50;;;14.45;;
37049;SDS011;22958;51.232;6.826;2023-03-01T09:40:18;21.63;;;10.88;;
37049;SDS011;22958;51.232;6.826;2023-03-01T09:42:47;24.92;;;12.00;;
37049;SDS011;22958;51.232;6.826;2023-03-01T09:45:21;25.50;;;11.80;;
37049;SDS011;22958;51.232;6.826;2023-03-01T09:47:52;22.77;;;11.40;;
37049;SDS011;22958;51.232;6.826;2023-03-01T09:50:19;22.33;;;11.45;;
37049;SDS011;22958;51.232;6.826;2023-03-01T09:55:16;25.42;;;11.40;;
37049;SDS011;22958;51.232;6.826;2023-03-01T10:02:48;32.45;;;12.13;;
37049;SDS011;22958;51.232;6.826;2023-03-01T10:05:27;25.98;;;11.82;;
37049;SDS011;22958;51.232;6.826;2023-03-01T10:08:05;29.63;;;11.68;;
37049;SDS011;22958;51.232;6.826;2023-03-01T10:10:50;24.98;;;12.02;;
37049;SDS011;22958;51.232;6.826;2023-03-01T10:19:03;24.15;;;11.20;;
37049;SDS011;22958;51.232;6.826;2023-03-01T10:21:31;23.88;;;10.50;;
37049;SDS011;22958;51.232;6.826;2023-03-01T10:24:10;23.52;;;11.18;;
37049;SDS011;22958;51.232;6.826;2023-03-01T10:26:50;24.48;;;11.00;;
37049;SDS011;22958;51.232;6.826;2023-03-01T10:29:23;24.25;;;11.80;;
37049;SDS011;22958;51.232;6.826;2023-03-01T10:32:14;22.05;;;11.60;;
37049;SDS011;22958;51.232;6.826;2023-03-01T10:34:39;24.30;;;12.23;;
37049;SDS011;22958;51.232;6.826;2023-03-01T10:37:16;24.55;;;12.85;;
37049;SDS011;22958;51.232;6.826;2023-03-01T10:39:55;30.50;;;13.10;;
37049;SDS011;22958;51.232;6.826;2023-03-01T10:44:57;23.98;;;12.63;;
37049;SDS011;22958;51.232;6.826;2023-03-01T10:47:23;28.33;;;12.88;;
37049;SDS011;22958;51.232;6.826;2023-03-01T10:49:52;26.33;;;13.73;;
37049;SDS011;22958;51.232;6.826;2023-03-01T10:52:20;25.77;;;12.95;;
37049;SDS011;22958;51.232;6.826;2023-03-01T10:54:51;28.55;;;12.55;;
37049;SDS011;22958;51.232;6.826;2023-03-01T10:57:29;27.98;;;12.95;;
37049;SDS011;22958;51.232;6.826;2023-03-01T11:00:10;24.33;;;11.63;;
37049;SDS011;22958;51.232;6.826;2023-03-01T11:02:47;26.50;;;12.30;;
37049;SDS011;22958;51.232;6.826;2023-03-01T11:05:26;23.35;;;12.00;;
37049;SDS011;22958;51.232;6.826;2023-03-01T11:07:55;25.67;;;13.30;;
37049;SDS011;22958;51.232;6.826;2023-03-01T11:10:27;26.60;;;11.05;;
37049;SDS011;22958;51.232;6.826;2023-03-01T11:13:04;23.02;;;10.25;;
37049;SDS011;22958;51.232;6.826;2023-03-01T11:15:32;23.35;;;11.30;;
37049;SDS011;22958;51.232;6.826;2023-03-01T11:17:57;24.67;;;11.17;;
37049;SDS011;22958;51.232;6.826;2023-03-01T11:20:33;19.90;;;11.33;;
37049;SDS011;22958;51.232;6.826;2023-03-01T11:23:02;19.17;;;10.48;;
37049;SDS011;22958;51.232;6.826;2023-03-01T11:25:37;19.35;;;10.05;;
37049;SDS011;22958;51.232;6.826;2023-03-01T11:28:10;19.88;;;10.52;;
37049;SDS011;22958;51.232;6.826;2023-03-01T11:33:17;23.05;;;9.50;;
37049;SDS011;22958;51.232;6.826;2023-03-01T11:35:47;21.17;;;10.43;;
37049;SDS011;22958;51.232;6.826;2023-03-01T11:38:24;16.23;;;9.85;;
37049;SDS011;22958;51.232;6.826;2023-03-01T11:40:57;17.92;;;9.30;;
37049;SDS011;22958;51.232;6.826;2023-03-01T11:43:37;23.83;;;10.48;;
37049;SDS011;22958;51.232;6.826;2023-03-01T11:54:57;20.67;;;9.65;;
37049;SDS011;22958;51.232;6.826;2023-03-01T12:00:37;19.52;;;9.27;;
37049;SDS011;22958;51.232;6.826;2023-03-01T12:09:14;17.77;;;9.07;;
37049;SDS011;22958;51.232;6.826;2023-03-01T12:23:40;13.63;;;8.10;;
37049;SDS011;22958;51.232;6.826;2023-03-01T12:43:05;15.15;;;7.80;;
37049;SDS011;22958;51.232;6.826;2023-03-01T12:45:58;12.45;;;7.78;;
37049;SDS011;22958;51.232;6.826;2023-03-01T12:48:56;13.88;;;7.28;;
37049;SDS011;22958;51.232;6.826;2023-03-01T12:51:30;14.50;;;7.53;;
37049;SDS011;22958;51.232;6.826;2023-03-01T12:53:58;11.15;;;7.20;;
37049;SDS011;22958;51.232;6.826;2023-03-01T12:56:28;11.18;;;7.28;;
37049;SDS011;22958;51.232;6.826;2023-03-01T12:58:59;14.15;;;7.65;;
37049;SDS011;22958;51.232;6.826;2023-03-01T13:01:49;12.68;;;7.88;;
37049;SDS011;22958;51.232;6.826;2023-03-01T13:09:58;15.10;;;7.53;;
37049;SDS011;22958;51.232;6.826;2023-03-01T13:12:50;10.27;;;6.82;;
37049;SDS011;22958;51.232;6.826;2023-03-01T13:15:37;16.98;;;7.57;;
37049;SDS011;22958;51.232;6.826;2023-03-01T13:23:23;13.40;;;7.95;;
37049;SDS011;22958;51.232;6.826;2023-03-01T13:31:10;13.32;;;7.60;;
37049;SDS011;22958;51.232;6.826;2023-03-01T13:33:44;12.55;;;7.95;;
37049;SDS011;22958;51.232;6.826;2023-03-01T13:44:48;15.30;;;8.20;;
37049;SDS011;22958;51.232;6.826;2023-03-01T13:49:42;14.00;;;8.02;;
37049;SDS011;22958;51.232;6.826;2023-03-01T13:55:03;11.43;;;7.18;;
37049;SDS011;22958;51.232;6.826;2023-03-01T13:57:32;13.98;;;7.55;;
37049;SDS011;22958;51.232;6.826;2023-03-01T13:59:59;17.73;;;7.60;;
37049;SDS011;22958;51.232;6.826;2023-03-01T14:02:25;15.30;;;7.87;;
37049;SDS011;22958;51.232;6.826;2023-03-01T14:04:57;16.73;;;7.27;;
37049;SDS011;22958;51.232;6.826;2023-03-01T14:07:24;11.85;;;7.45;;
37049;SDS011;22958;51.232;6.826;2023-03-01T14:09:54;12.32;;;7.25;;
37049;SDS011;22958;51.232;6.826;2023-03-01T14:13:05;11.40;;;7.32;;
37049;SDS011;22958;51.232;6.826;2023-03-01T14:15:50;10.77;;;7.13;;
37049;SDS011;22958;51.232;6.826;2023-03-01T14:18:35;17.30;;;7.68;;
37049;SDS011;22958;51.232;6.826;2023-03-01T14:21:07;14.35;;;7.80;;
37049;SDS011;22958;51.232;6.826;2023-03-01T14:23:33;14.65;;;6.95;;
37049;SDS011;22958;51.232;6.826;2023-03-01T14:26:00;12.18;;;7.82;;
37049;SDS011;22958;51.232;6.826;2023-03-01T14:28:29;11.17;;;7.20;;
37049;SDS011;22958;51.232;6.826;2023-03-01T14:30:59;14.82;;;7.63;;
37049;SDS011;22958;51.232;6.826;2023-03-01T14:38:38;15.35;;;7.40;;
37049;SDS011;22958;51.232;6.826;2023-03-01T14:41:09;12.13;;;7.13;;
37049;SDS011;22958;51.232;6.826;2023-03-01T14:43:44;13.93;;;7.93;;
37049;SDS011;22958;51.232;6.826;2023-03-01T14:46:55;13.05;;;7.68;;
37049;SDS011;22958;51.232;6.826;2023-03-01T14:52:06;17.73;;;7.40;;
37049;SDS011;22958;51.232;6.826;2023-03-01T14:54:42;15.75;;;7.15;;
37049;SDS011;22958;51.232;6.826;2023-03-01T14:57:14;17.65;;;7.50;;
37049;SDS011;22958;51.232;6.826;2023-03-01T14:59:48;12.18;;;7.65;;
37049;SDS011;22958;51.232;6.826;2023-03-01T15:02:18;18.45;;;7.35;;
37049;SDS011;22958;51.232;6.826;2023-03-01T15:04:47;12.10;;;7.00;;
37049;SDS011;22958;51.232;6.826;2023-03-01T15:07:16;14.38;;;7.75;;
37049;SDS011;22958;51.232;6.826;2023-03-01T15:09:42;14.30;;;7.53;;
37049;SDS011;22958;51.232;6.826;2023-03-01T15:14:52;13.50;;;7.88;;
37049;SDS011;22958;51.232;6.826;2023-03-01T15:19:59;15.65;;;8.35;;
37049;SDS011;22958;51.232;6.826;2023-03-01T15:22:27;15.60;;;8.13;;
37049;SDS011;22958;51.232;6.826;2023-03-01T15:24:53;16.55;;;7.25;;
37049;SDS011;22958;51.232;6.826;2023-03-01T15:27:21;13.40;;;7.80;;
37049;SDS011;22958;51.232;6.826;2023-03-01T15:29:48;13.18;;;7.38;;
37049;SDS011;22958;51.232;6.826;2023-03-01T15:32:30;14.77;;;7.45;;
37049;SDS011;22958;51.232;6.826;2023-03-01T15:38:23;15.25;;;7.57;;
37049;SDS011;22958;51.232;6.826;2023-03-01T15:46:22;17.42;;;7.53;;
37049;SDS011;22958;51.232;6.826;2023-03-01T15:48:56;12.27;;;6.93;;
37049;SDS011;22958;51.232;6.826;2023-03-01T15:51:35;14.30;;;7.15;;
37049;SDS011;22958;51.232;6.826;2023-03-01T15:54:06;14.32;;;7.72;;
37049;SDS011;22958;51.232;6.826;2023-03-01T15:56:40;17.40;;;7.28;;
37049;SDS011;22958;51.232;6.826;2023-03-01T15:59:08;15.10;;;7.13;;
37049;SDS011;22958;51.232;6.826;2023-03-01T16:01:36;13.20;;;6.93;;
37049;SDS011;22958;51.232;6.826;2023-03-01T16:04:02;16.53;;;7.27;;
37049;SDS011;22958;51.232;6.826;2023-03-01T16:06:27;13.63;;;7.10;;
37049;SDS011;22958;51.232;6.826;2023-03-01T16:08:53;12.97;;;6.97;;
37049;SDS011;22958;51.232;6.826;2023-03-01T16:11:20;13.10;;;7.03;;
37049;SDS011;22958;51.232;6.826;2023-03-01T16:13:46;14.40;;;6.93;;
37049;SDS011;22958;51.232;6.826;2023-03-01T16:16:12;13.98;;;7.22;;
37049;SDS011;22958;51.232;6.826;2023-03-01T16:18:41;14.30;;;7.13;;
37049;SDS011;22958;51.232;6.826;2023-03-01T16:21:15;15.65;;;7.10;;
37049;SDS011;22958;51.232;6.826;2023-03-01T16:23:44;16.42;;;7.90;;
37049;SDS011;22958;51.232;6.826;2023-03-01T16:26:10;14.32;;;6.95;;
37049;SDS011;22958;51.232;6.826;2023-03-01T16:31:03;20.02;;;7.43;;
37049;SDS011;22958;51.232;6.826;2023-03-01T16:33:29;15.40;;;7.17;;
37049;SDS011;22958;51.232;6.826;2023-03-01T16:35:55;14.40;;;6.90;;
37049;SDS011;22958;51.232;6.826;2023-03-01T16:38:20;12.77;;;7.17;;
37049;SDS011;22958;51.232;6.826;2023-03-01T16:40:47;13.50;;;6.83;;
37049;SDS011;22958;51.232;6.826;2023-03-01T16:43:13;14.75;;;7.50;;
37049;SDS011;22958;51.232;6.826;2023-03-01T16:45:39;22.27;;;7.20;;
37049;SDS011;22958;51.232;6.826;2023-03-01T16:48:06;15.63;;;7.10;;
37049;SDS011;22958;51.232;6.826;2023-03-01T16:50:31;18.30;;;7.40;;
37049;SDS011;22958;51.232;6.826;2023-03-01T16:52:57;15.20;;;7.57;;
37049;SDS011;22958;51.232;6.826;2023-03-01T16:55:22;16.80;;;7.80;;